sensor_id;sensor_type;location;lat;lon;timestamp;P1;durP1;ratioP1;P2;durP2;ratioP2
41661;SDS011;27351;45.992;12.666;2023-08-07T00:01:06;0.87;;;0.30;;
41661;SDS011;27351;45.992;12.666;2023-08-07T00:03:32;1.10;;;0.30;;
41661;SDS011;27351;45.992;12.666;2023-08-07T00:05:57;0.73;;;0.60;;
41661;SDS011;27351;45.992;12.666;2023-08-07T00:08:23;2.97;;;0.52;;
41661;SDS011;27351;45.992;12.666;2023-08-07T00:10:48;0.30;;;0.20;;
41661;SDS011;27351;45.992;12.666;2023-08-07T00:13:14;0.90;;;0.30;;
41661;SDS011;27351;45.992;12.666;2023-08-07T00:15:40;0.20;;;0.17;;
41661;SDS011;27351;45.992;12.666;2023-08-07T00:18:05;2.00;;;0.40;;
41661;SDS011;27351;45.992;12.666;2023-08-07T00:20:31;1.00;;;0.50;;
41661;SDS011;27351;45.992;12.666;2023-08-07T00:22:56;0.40;;;0.30;;
41661;SDS011;27351;45.992;12.666;2023-08-07T00:25:22;0.80;;;0.30;;
41661;SDS011;27351;45.992;12.666;2023-08-07T00:27:47;0.47;;;0.30;;
41661;SDS011;27351;45.992;12.666;2023-08-07T00:30:13;1.30;;;0.47;;
41661;SDS011;27351;45.992;12.666;2023-08-07T00:32:39;0.40;;;0.30;;
41661;SDS011;27351;45.992;12.666;2023-08-07T00:35:05;2.40;;;0.70;;
41661;SDS011;27351;45.992;12.666;2023-08-07T00:37:31;0.70;;;0.30;;
41661;SDS011;27351;45.992;12.666;2023-08-07T00:39:56;1.50;;;0.60;;
41661;SDS011;27351;45.992;12.666;2023-08-07T00:42:22;0.63;;;0.37;;
41661;SDS011;27351;45.992;12.666;2023-08-07T00:44:47;0.77;;;0.40;;
41661;SDS011;27351;45.992;12.666;2023-08-07T00:47:13;1.17;;;0.40;;
41661;SDS011;27351;45.992;12.666;2023-08-07T00:49:39;0.82;;;0.30;;
41661;SDS011;27351;45.992;12.666;2023-08-07T00:52:05;0.20;;;0.20;;
41661;SDS011;27351;45.992;12.666;2023-08-07T00:54:30;0.90;;;0.22;;
41661;SDS011;27351;45.992;12.666;2023-08-07T00:56:59;1.17;;;0.30;;
41661;SDS011;27351;45.992;12.666;2023-08-07T00:59:31;0.20;;;0.20;;
41661;SDS011;27351;45.992;12.666;2023-08-07T01:01:58;0.98;;;0.40;;
41661;SDS011;27351;45.992;12.666;2023-08-07T01:04:25;1.50;;;0.40;;
41661;SDS011;27351;45.992;12.666;2023-08-07T01:06:50;1.20;;;0.40;;
41661;SDS011;27351;45.992;12.666;2023-08-07T01:09:16;1.20;;;0.40;;
41661;SDS011;27351;45.992;12.666;2023-08-07T01:11:49;1.65;;;0.70;;
41661;SDS011;27351;45.992;12.666;2023-08-07T01:19:06;1.33;;;0.50;;
41661;SDS011;27351;45.992;12.666;2023-08-07T01:21:34;0.60;;;0.40;;
41661;SDS011;27351;45.992;12.666;2023-08-07T01:24:00;0.82;;;0.47;;
41661;SDS011;27351;45.992;12.666;2023-08-07T01:26:25;0.43;;;0.40;;
41661;SDS011;27351;45.992;12.666;2023-08-07T01:29:26;0.50;;;0.40;;
41661;SDS011;27351;45.992;12.666;2023-08-07T01:31:43;1.38;;;0.40;;
41661;SDS011;27351;45.992;12.666;2023-08-07T01:34:09;0.85;;;0.50;;
41661;SDS011;27351;45.992;12.666;2023-08-07T01:36:38;1.73;;;0.30;;
41661;SDS011;27351;45.992;12.666;2023-08-07T01:39:04;1.52;;;0.50;;
41661;SDS011;27351;45.992;12.666;2023-08-07T01:41:32;1.15;;;0.68;;
41661;SDS011;27351;45.992;12.666;2023-08-07T01:43:58;1.27;;;0.50;;
41661;SDS011;27351;45.992;12.666;2023-08-07T01:46:23;0.70;;;0.40;;
41661;SDS011;27351;45.992;12.666;2023-08-07T01:48:49;0.97;;;0.50;;
41661;SDS011;27351;45.992;12.666;2023-08-07T01:51:14;1.63;;;0.53;;
41661;SDS011;27351;45.992;12.666;2023-08-07T01:53:40;0.80;;;0.50;;
41661;SDS011;27351;45.992;12.666;2023-08-07T01:56:05;0.63;;;0.50;;
41661;SDS011;27351;45.992;12.666;2023-08-07T01:58:31;0.87;;;0.57;;
41661;SDS011;27351;45.992;12.666;2023-08-07T02:00:57;0.87;;;0.50;;
41661;SDS011;27351;45.992;12.666;2023-08-07T02:03:22;1.58;;;0.60;;
41661;SDS011;27351;45.992;12.666;2023-08-07T02:05:48;1.27;;;0.50;;
41661;SDS011;27351;45.992;12.666;2023-08-07T02:08:13;2.10;;;1.07;;
41661;SDS011;27351;45.992;12.666;2023-08-07T02:10:39;2.05;;;0.70;;
41661;SDS011;27351;45.992;12.666;2023-08-07T02:13:05;1.30;;;0.53;;
41661;SDS011;27351;45.992;12.666;2023-08-07T02:15:32;1.00;;;0.57;;
41661;SDS011;27351;45.992;12.666;2023-08-07T02:17:57;1.00;;;0.50;;
41661;SDS011;27351;45.992;12.666;2023-08-07T02:20:23;1.50;;;0.50;;
41661;SDS011;27351;45.992;12.666;2023-08-07T02:22:49;0.50;;;0.40;;
41661;SDS011;27351;45.992;12.666;2023-08-07T02:25:15;1.53;;;0.60;;
41661;SDS011;27351;45.992;12.666;2023-08-07T02:27:40;0.87;;;0.70;;
41661;SDS011;27351;45.992;12.666;2023-08-07T02:30:06;1.70;;;0.80;;
41661;SDS011;27351;45.992;12.666;2023-08-07T02:32:31;0.98;;;0.70;;
41661;SDS011;27351;45.992;12.666;2023-08-07T02:34:57;0.88;;;0.50;;
41661;SDS011;27351;45.992;12.666;2023-08-07T02:37:23;2.60;;;0.70;;
41661;SDS011;27351;45.992;12.666;2023-08-07T02:39:49;1.75;;;0.60;;
41661;SDS011;27351;45.992;12.666;2023-08-07T02:42:14;1.80;;;0.60;;
41661;SDS011;27351;45.992;12.666;2023-08-07T02:44:40;1.20;;;0.50;;
41661;SDS011;27351;45.992;12.666;2023-08-07T02:47:05;3.37;;;0.60;;
41661;SDS011;27351;45.992;12.666;2023-08-07T02:49:31;1.27;;;0.70;;
41661;SDS011;27351;45.992;12.666;2023-08-07T02:51:57;0.50;;;0.50;;
41661;SDS011;27351;45.992;12.666;2023-08-07T02:54:22;0.70;;;0.60;;
41661;SDS011;27351;45.992;12.666;2023-08-07T02:56:48;0.65;;;0.43;;
41661;SDS011;27351;45.992;12.666;2023-08-07T02:59:16;1.23;;;0.50;;
41661;SDS011;27351;45.992;12.666;2023-08-07T03:01:43;1.90;;;0.60;;
41661;SDS011;27351;45.992;12.666;2023-08-07T03:04:09;1.63;;;0.77;;
41661;SDS011;27351;45.992;12.666;2023-08-07T03:06:34;0.93;;;0.70;;
41661;SDS011;27351;45.992;12.666;2023-08-07T03:09:00;2.07;;;0.60;;
41661;SDS011;27351;45.992;12.666;2023-08-07T03:11:26;1.77;;;0.70;;
41661;SDS011;27351;45.992;12.666;2023-08-07T03:13:51;0.85;;;0.65;;
41661;SDS011;27351;45.992;12.666;2023-08-07T03:16:17;1.40;;;0.65;;
41661;SDS011;27351;45.992;12.666;2023-08-07T03:18:43;1.92;;;0.70;;
41661;SDS011;27351;45.992;12.666;2023-08-07T03:21:08;0.70;;;0.60;;
41661;SDS011;27351;45.992;12.666;2023-08-07T03:23:34;0.97;;;0.60;;
41661;SDS011;27351;45.992;12.666;2023-08-07T03:26:07;0.90;;;0.50;;
41661;SDS011;27351;45.992;12.666;2023-08-07T03:28:33;1.23;;;0.70;;
41661;SDS011;27351;45.992;12.666;2023-08-07T03:30:59;1.43;;;0.80;;
41661;SDS011;27351;45.992;12.666;2023-08-07T03:33:28;1.02;;;0.60;;
41661;SDS011;27351;45.992;12.666;2023-08-07T03:35:54;1.20;;;0.70;;
41661;SDS011;27351;45.992;12.666;2023-08-07T03:38:20;0.88;;;0.70;;
41661;SDS011;27351;45.992;12.666;2023-08-07T03:40:48;2.42;;;0.70;;
41661;SDS011;27351;45.992;12.666;2023-08-07T03:43:14;1.27;;;0.80;;
41661;SDS011;27351;45.992;12.666;2023-08-07T03:45:39;5.72;;;0.98;;
41661;SDS011;27351;45.992;12.666;2023-08-07T03:48:05;2.00;;;1.13;;
41661;SDS011;27351;45.992;12.666;2023-08-07T03:50:31;0.70;;;0.70;;
41661;SDS011;27351;45.992;12.666;2023-08-07T03:53:00;0.90;;;0.70;;
41661;SDS011;27351;45.992;12.666;2023-08-07T03:55:27;1.63;;;0.75;;
41661;SDS011;27351;45.992;12.666;2023-08-07T03:57:53;1.33;;;1.00;;
41661;SDS011;27351;45.992;12.666;2023-08-07T04:00:18;1.97;;;0.80;;
41661;SDS011;27351;45.992;12.666;2023-08-07T04:02:48;0.80;;;0.77;;
41661;SDS011;27351;45.992;12.666;2023-08-07T04:05:13;1.67;;;0.70;;
41661;SDS011;27351;45.992;12.666;2023-08-07T04:07:39;1.27;;;0.80;;
41661;SDS011;27351;45.992;12.666;2023-08-07T04:10:05;1.60;;;0.90;;
41661;SDS011;27351;45.992;12.666;2023-08-07T04:12:30;1.90;;;0.82;;
41661;SDS011;27351;45.992;12.666;2023-08-07T04:14:56;1.77;;;0.90;;
41661;SDS011;27351;45.992;12.666;2023-08-07T04:17:22;2.10;;;0.70;;
41661;SDS011;27351;45.992;12.666;2023-08-07T04:19:47;1.80;;;0.70;;
41661;SDS011;27351;45.992;12.666;2023-08-07T04:22:13;2.20;;;0.80;;
41661;SDS011;27351;45.992;12.666;2023-08-07T04:24:38;1.52;;;0.63;;
41661;SDS011;27351;45.992;12.666;2023-08-07T04:27:05;3.00;;;1.00;;
41661;SDS011;27351;45.992;12.666;2023-08-07T04:29:30;1.90;;;0.70;;
41661;SDS011;27351;45.992;12.666;2023-08-07T04:31:56;1.00;;;0.73;;
41661;SDS011;27351;45.992;12.666;2023-08-07T04:34:21;1.50;;;0.90;;
41661;SDS011;27351;45.992;12.666;2023-08-07T04:36:47;1.13;;;0.70;;
41661;SDS011;27351;45.992;12.666;2023-08-07T04:39:12;3.10;;;0.70;;
41661;SDS011;27351;45.992;12.666;2023-08-07T04:41:39;2.33;;;0.82;;
41661;SDS011;27351;45.992;12.666;2023-08-07T04:44:04;0.93;;;0.60;;
41661;SDS011;27351;45.992;12.666;2023-08-07T04:46:30;1.38;;;0.70;;
41661;SDS011;27351;45.992;12.666;2023-08-07T04:48:56;1.52;;;0.80;;
41661;SDS011;27351;45.992;12.666;2023-08-07T04:51:21;1.80;;;0.80;;
41661;SDS011;27351;45.992;12.666;2023-08-07T04:53:47;2.90;;;0.90;;
41661;SDS011;27351;45.992;12.666;2023-08-07T04:56:16;1.30;;;0.80;;
41661;SDS011;27351;45.992;12.666;2023-08-07T04:58:44;1.10;;;0.70;;
41661;SDS011;27351;45.992;12.666;2023-08-07T05:01:14;0.98;;;0.80;;
41661;SDS011;27351;45.992;12.666;2023-08-07T05:03:39;1.50;;;0.77;;
41661;SDS011;27351;45.992;12.666;2023-08-07T05:06:05;1.17;;;0.87;;
41661;SDS011;27351;45.992;12.666;2023-08-07T05:08:30;1.73;;;1.03;;
41661;SDS011;27351;45.992;12.666;2023-08-07T05:10:56;1.33;;;0.93;;
41661;SDS011;27351;45.992;12.666;2023-08-07T05:13:22;1.63;;;1.07;;
41661;SDS011;27351;45.992;12.666;2023-08-07T05:15:47;2.67;;;0.90;;
41661;SDS011;27351;45.992;12.666;2023-08-07T05:18:15;1.73;;;0.70;;
41661;SDS011;27351;45.992;12.666;2023-08-07T05:20:41;1.30;;;0.75;;
41661;SDS011;27351;45.992;12.666;2023-08-07T05:23:06;1.90;;;0.90;;
41661;SDS011;27351;45.992;12.666;2023-08-07T05:25:32;3.00;;;1.13;;
41661;SDS011;27351;45.992;12.666;2023-08-07T05:27:57;2.73;;;0.90;;
41661;SDS011;27351;45.992;12.666;2023-08-07T05:30:23;1.37;;;0.93;;
41661;SDS011;27351;45.992;12.666;2023-08-07T05:32:49;2.93;;;0.63;;
41661;SDS011;27351;45.992;12.666;2023-08-07T05:35:14;1.30;;;0.60;;
41661;SDS011;27351;45.992;12.666;2023-08-07T05:37:40;1.10;;;0.80;;
41661;SDS011;27351;45.992;12.666;2023-08-07T05:40:06;0.60;;;0.60;;
41661;SDS011;27351;45.992;12.666;2023-08-07T05:42:31;0.93;;;0.80;;
41661;SDS011;27351;45.992;12.666;2023-08-07T05:44:58;1.10;;;0.70;;
41661;SDS011;27351;45.992;12.666;2023-08-07T05:47:23;1.33;;;0.80;;
41661;SDS011;27351;45.992;12.666;2023-08-07T05:49:49;1.20;;;0.80;;
41661;SDS011;27351;45.992;12.666;2023-08-07T05:52:15;1.15;;;0.88;;
41661;SDS011;27351;45.992;12.666;2023-08-07T05:54:40;1.85;;;1.00;;
41661;SDS011;27351;45.992;12.666;2023-08-07T05:57:06;2.38;;;0.73;;
41661;SDS011;27351;45.992;12.666;2023-08-07T05:59:32;1.80;;;0.80;;
41661;SDS011;27351;45.992;12.666;2023-08-07T06:01:59;1.83;;;0.73;;
41661;SDS011;27351;45.992;12.666;2023-08-07T06:04:25;0.73;;;0.57;;
41661;SDS011;27351;45.992;12.666;2023-08-07T06:06:51;1.50;;;0.70;;
41661;SDS011;27351;45.992;12.666;2023-08-07T06:09:16;1.05;;;0.60;;
41661;SDS011;27351;45.992;12.666;2023-08-07T06:11:42;0.90;;;0.60;;
41661;SDS011;27351;45.992;12.666;2023-08-07T06:14:07;1.20;;;0.70;;
41661;SDS011;27351;45.992;12.666;2023-08-07T06:16:33;0.70;;;0.50;;
41661;SDS011;27351;45.992;12.666;2023-08-07T06:19:02;1.52;;;0.70;;
41661;SDS011;27351;45.992;12.666;2023-08-07T06:21:28;0.73;;;0.60;;
41661;SDS011;27351;45.992;12.666;2023-08-07T06:23:54;1.33;;;1.00;;
41661;SDS011;27351;45.992;12.666;2023-08-07T06:26:20;7.47;;;1.00;;
41661;SDS011;27351;45.992;12.666;2023-08-07T06:28:45;2.90;;;0.83;;
41661;SDS011;27351;45.992;12.666;2023-08-07T06:31:11;1.10;;;0.67;;
41661;SDS011;27351;45.992;12.666;2023-08-07T06:33:37;1.45;;;0.60;;
41661;SDS011;27351;45.992;12.666;2023-08-07T06:36:02;0.68;;;0.60;;
41661;SDS011;27351;45.992;12.666;2023-08-07T06:38:29;0.90;;;0.60;;
41661;SDS011;27351;45.992;12.666;2023-08-07T06:40:54;1.47;;;0.80;;
41661;SDS011;27351;45.992;12.666;2023-08-07T06:43:20;1.10;;;0.63;;
41661;SDS011;27351;45.992;12.666;2023-08-07T06:45:47;1.57;;;0.63;;
41661;SDS011;27351;45.992;12.666;2023-08-07T06:48:12;0.98;;;0.70;;
41661;SDS011;27351;45.992;12.666;2023-08-07T06:50:38;1.73;;;0.70;;
41661;SDS011;27351;45.992;12.666;2023-08-07T06:53:03;1.50;;;0.80;;
41661;SDS011;27351;45.992;12.666;2023-08-07T06:55:29;1.15;;;0.60;;
41661;SDS011;27351;45.992;12.666;2023-08-07T06:57:54;1.70;;;0.60;;
41661;SDS011;27351;45.992;12.666;2023-08-07T07:00:20;0.80;;;0.63;;
41661;SDS011;27351;45.992;12.666;2023-08-07T07:02:45;2.80;;;0.80;;
41661;SDS011;27351;45.992;12.666;2023-08-07T07:05:11;1.90;;;0.60;;
41661;SDS011;27351;45.992;12.666;2023-08-07T07:07:37;1.23;;;0.70;;
41661;SDS011;27351;45.992;12.666;2023-08-07T07:10:03;1.90;;;0.60;;
41661;SDS011;27351;45.992;12.666;2023-08-07T07:12:29;0.80;;;0.50;;
41661;SDS011;27351;45.992;12.666;2023-08-07T07:14:55;0.60;;;0.52;;
41661;SDS011;27351;45.992;12.666;2023-08-07T07:17:20;1.60;;;0.77;;
41661;SDS011;27351;45.992;12.666;2023-08-07T07:19:46;1.93;;;0.70;;
41661;SDS011;27351;45.992;12.666;2023-08-07T07:22:11;0.90;;;0.60;;
41661;SDS011;27351;45.992;12.666;2023-08-07T07:24:37;2.83;;;0.77;;
41661;SDS011;27351;45.992;12.666;2023-08-07T07:27:03;1.00;;;0.68;;
41661;SDS011;27351;45.992;12.666;2023-08-07T07:29:28;1.50;;;0.70;;
41661;SDS011;27351;45.992;12.666;2023-08-07T07:31:54;1.27;;;0.70;;
41661;SDS011;27351;45.992;12.666;2023-08-07T07:34:20;1.13;;;0.52;;
41661;SDS011;27351;45.992;12.666;2023-08-07T07:36:46;1.45;;;0.60;;
41661;SDS011;27351;45.992;12.666;2023-08-07T07:39:11;1.40;;;0.80;;
41661;SDS011;27351;45.992;12.666;2023-08-07T07:41:37;2.13;;;0.80;;
41661;SDS011;27351;45.992;12.666;2023-08-07T07:44:02;1.47;;;0.70;;
41661;SDS011;27351;45.992;12.666;2023-08-07T07:46:28;1.95;;;0.70;;
41661;SDS011;27351;45.992;12.666;2023-08-07T07:48:53;1.27;;;0.70;;
41661;SDS011;27351;45.992;12.666;2023-08-07T07:51:21;2.35;;;1.10;;
41661;SDS011;27351;45.992;12.666;2023-08-07T07:53:46;2.90;;;1.27;;
41661;SDS011;27351;45.992;12.666;2023-08-07T07:56:12;2.17;;;1.10;;
41661;SDS011;27351;45.992;12.666;2023-08-07T07:58:37;2.00;;;0.70;;
41661;SDS011;27351;45.992;12.666;2023-08-07T08:01:03;1.83;;;0.77;;
41661;SDS011;27351;45.992;12.666;2023-08-07T08:03:28;2.15;;;0.68;;
41661;SDS011;27351;45.992;12.666;2023-08-07T08:05:54;1.60;;;0.57;;
41661;SDS011;27351;45.992;12.666;2023-08-07T08:08:19;1.00;;;0.50;;
41661;SDS011;27351;45.992;12.666;2023-08-07T08:10:45;2.47;;;0.63;;
41661;SDS011;27351;45.992;12.666;2023-08-07T08:13:13;1.88;;;0.70;;
41661;SDS011;27351;45.992;12.666;2023-08-07T08:15:39;1.80;;;0.60;;
41661;SDS011;27351;45.992;12.666;2023-08-07T08:18:05;0.73;;;0.40;;
41661;SDS011;27351;45.992;12.666;2023-08-07T08:20:30;0.70;;;0.40;;
41661;SDS011;27351;45.992;12.666;2023-08-07T08:22:56;0.97;;;0.60;;
41661;SDS011;27351;45.992;12.666;2023-08-07T08:25:22;1.37;;;0.50;;
41661;SDS011;27351;45.992;12.666;2023-08-07T08:27:47;2.08;;;0.57;;
41661;SDS011;27351;45.992;12.666;2023-08-07T08:30:13;1.58;;;0.50;;
41661;SDS011;27351;45.992;12.666;2023-08-07T08:32:38;1.00;;;0.60;;
41661;SDS011;27351;45.992;12.666;2023-08-07T08:35:05;0.53;;;0.50;;
41661;SDS011;27351;45.992;12.666;2023-08-07T08:37:31;0.70;;;0.50;;
41661;SDS011;27351;45.992;12.666;2023-08-07T08:39:56;1.80;;;1.10;;
41661;SDS011;27351;45.992;12.666;2023-08-07T08:42:22;1.77;;;0.50;;
41661;SDS011;27351;45.992;12.666;2023-08-07T08:44:55;1.20;;;0.50;;
41661;SDS011;27351;45.992;12.666;2023-08-07T08:47:21;1.10;;;0.32;;
41661;SDS011;27351;45.992;12.666;2023-08-07T08:49:50;1.58;;;0.60;;
41661;SDS011;27351;45.992;12.666;2023-08-07T08:52:16;3.17;;;0.75;;
41661;SDS011;27351;45.992;12.666;2023-08-07T08:54:42;0.93;;;0.40;;
41661;SDS011;27351;45.992;12.666;2023-08-07T08:57:08;1.73;;;0.50;;
41661;SDS011;27351;45.992;12.666;2023-08-07T08:59:34;0.70;;;0.30;;
41661;SDS011;27351;45.992;12.666;2023-08-07T09:02:00;1.25;;;0.40;;
41661;SDS011;27351;45.992;12.666;2023-08-07T09:04:25;1.27;;;0.50;;
41661;SDS011;27351;45.992;12.666;2023-08-07T09:06:51;0.53;;;0.40;;
41661;SDS011;27351;45.992;12.666;2023-08-07T09:09:17;1.20;;;0.50;;
41661;SDS011;27351;45.992;12.666;2023-08-07T09:11:45;0.93;;;0.40;;
41661;SDS011;27351;45.992;12.666;2023-08-07T09:14:22;2.67;;;0.50;;
41661;SDS011;27351;45.992;12.666;2023-08-07T09:16:47;0.80;;;0.40;;
41661;SDS011;27351;45.992;12.666;2023-08-07T09:19:13;0.80;;;0.47;;
41661;SDS011;27351;45.992;12.666;2023-08-07T09:21:39;0.80;;;0.50;;
41661;SDS011;27351;45.992;12.666;2023-08-07T09:24:05;1.10;;;0.33;;
41661;SDS011;27351;45.992;12.666;2023-08-07T09:26:32;0.70;;;0.35;;
41661;SDS011;27351;45.992;12.666;2023-08-07T09:28:58;1.70;;;0.40;;
41661;SDS011;27351;45.992;12.666;2023-08-07T09:31:24;1.67;;;0.40;;
41661;SDS011;27351;45.992;12.666;2023-08-07T09:33:53;0.63;;;0.27;;
41661;SDS011;27351;45.992;12.666;2023-08-07T09:36:18;0.80;;;0.50;;
41661;SDS011;27351;45.992;12.666;2023-08-07T09:38:49;2.00;;;0.60;;
41661;SDS011;27351;45.992;12.666;2023-08-07T09:41:17;1.27;;;0.40;;
41661;SDS011;27351;45.992;12.666;2023-08-07T09:43:42;0.60;;;0.30;;
41661;SDS011;27351;45.992;12.666;2023-08-07T09:46:08;1.47;;;0.27;;
41661;SDS011;27351;45.992;12.666;2023-08-07T09:48:40;0.88;;;0.30;;
41661;SDS011;27351;45.992;12.666;2023-08-07T09:51:06;0.83;;;0.40;;
41661;SDS011;27351;45.992;12.666;2023-08-07T09:53:32;1.40;;;0.50;;
41661;SDS011;27351;45.992;12.666;2023-08-07T09:55:58;1.75;;;0.60;;
41661;SDS011;27351;45.992;12.666;2023-08-07T09:58:23;1.10;;;0.50;;
41661;SDS011;27351;45.992;12.666;2023-08-07T10:00:49;0.50;;;0.30;;
41661;SDS011;27351;45.992;12.666;2023-08-07T10:03:15;0.82;;;0.40;;
41661;SDS011;27351;45.992;12.666;2023-08-07T10:05:42;1.02;;;0.50;;
41661;SDS011;27351;45.992;12.666;2023-08-07T10:08:10;0.80;;;0.40;;
41661;SDS011;27351;45.992;12.666;2023-08-07T10:10:35;3.00;;;0.50;;
41661;SDS011;27351;45.992;12.666;2023-08-07T10:13:02;0.82;;;0.50;;
41661;SDS011;27351;45.992;12.666;2023-08-07T10:15:28;2.20;;;0.60;;
41661;SDS011;27351;45.992;12.666;2023-08-07T10:17:54;0.75;;;0.45;;
41661;SDS011;27351;45.992;12.666;2023-08-07T10:20:19;0.77;;;0.43;;
41661;SDS011;27351;45.992;12.666;2023-08-07T10:22:45;1.23;;;0.47;;
41661;SDS011;27351;45.992;12.666;2023-08-07T10:25:11;0.80;;;0.30;;
41661;SDS011;27351;45.992;12.666;2023-08-07T10:27:38;0.73;;;0.30;;
41661;SDS011;27351;45.992;12.666;2023-08-07T10:30:05;1.00;;;0.30;;
41661;SDS011;27351;45.992;12.666;2023-08-07T10:32:33;0.68;;;0.40;;
41661;SDS011;27351;45.992;12.666;2023-08-07T10:35:02;0.60;;;0.30;;
41661;SDS011;27351;45.992;12.666;2023-08-07T10:37:41;0.90;;;0.45;;
41661;SDS011;27351;45.992;12.666;2023-08-07T10:40:08;2.70;;;0.40;;
41661;SDS011;27351;45.992;12.666;2023-08-07T10:45:19;2.10;;;0.47;;
41661;SDS011;27351;45.992;12.666;2023-08-07T10:48:07;1.08;;;0.35;;
41661;SDS011;27351;45.992;12.666;2023-08-07T10:51:18;0.55;;;0.28;;
41661;SDS011;27351;45.992;12.666;2023-08-07T10:53:19;1.00;;;0.60;;
41661;SDS011;27351;45.992;12.666;2023-08-07T10:55:46;1.15;;;0.40;;
41661;SDS011;27351;45.992;12.666;2023-08-07T10:58:24;0.30;;;0.28;;
41661;SDS011;27351;45.992;12.666;2023-08-07T11:00:51;1.40;;;0.25;;
41661;SDS011;27351;45.992;12.666;2023-08-07T11:03:20;0.30;;;0.20;;
41661;SDS011;27351;45.992;12.666;2023-08-07T11:05:45;0.90;;;0.30;;
41661;SDS011;27351;45.992;12.666;2023-08-07T11:08:11;2.40;;;0.30;;
41661;SDS011;27351;45.992;12.666;2023-08-07T11:10:37;0.60;;;0.40;;
41661;SDS011;27351;45.992;12.666;2023-08-07T11:13:02;0.77;;;0.23;;
41661;SDS011;27351;45.992;12.666;2023-08-07T11:15:28;0.80;;;0.30;;
41661;SDS011;27351;45.992;12.666;2023-08-07T11:17:53;0.47;;;0.20;;
41661;SDS011;27351;45.992;12.666;2023-08-07T11:20:19;1.10;;;0.20;;
41661;SDS011;27351;45.992;12.666;2023-08-07T11:22:44;0.45;;;0.30;;
41661;SDS011;27351;45.992;12.666;2023-08-07T11:25:10;0.80;;;0.30;;
41661;SDS011;27351;45.992;12.666;2023-08-07T11:27:36;0.50;;;0.30;;
41661;SDS011;27351;45.992;12.666;2023-08-07T11:30:02;0.47;;;0.20;;
41661;SDS011;27351;45.992;12.666;2023-08-07T11:32:28;0.30;;;0.20;;
41661;SDS011;27351;45.992;12.666;2023-08-07T11:34:54;1.03;;;0.20;;
41661;SDS011;27351;45.992;12.666;2023-08-07T11:37:19;0.50;;;0.30;;
41661;SDS011;27351;45.992;12.666;2023-08-07T11:39:45;0.70;;;0.40;;
41661;SDS011;27351;45.992;12.666;2023-08-07T11:42:11;0.43;;;0.30;;
41661;SDS011;27351;45.992;12.666;2023-08-07T11:44:37;1.40;;;0.28;;
41661;SDS011;27351;45.992;12.666;2023-08-07T11:47:02;1.10;;;0.25;;
41661;SDS011;27351;45.992;12.666;2023-08-07T11:49:28;0.80;;;0.27;;
41661;SDS011;27351;45.992;12.666;2023-08-07T11:51:54;1.88;;;0.40;;
41661;SDS011;27351;45.992;12.666;2023-08-07T11:54:19;0.50;;;0.20;;
41661;SDS011;27351;45.992;12.666;2023-08-07T11:56:45;0.63;;;0.30;;
41661;SDS011;27351;45.992;12.666;2023-08-07T11:59:11;0.37;;;0.20;;
41661;SDS011;27351;45.992;12.666;2023-08-07T12:01:37;1.50;;;0.30;;
41661;SDS011;27351;45.992;12.666;2023-08-07T12:06:33;0.63;;;0.33;;
41661;SDS011;27351;45.992;12.666;2023-08-07T12:09:01;0.20;;;0.20;;
41661;SDS011;27351;45.992;12.666;2023-08-07T12:11:28;0.32;;;0.20;;
41661;SDS011;27351;45.992;12.666;2023-08-07T12:13:53;0.32;;;0.15;;
41661;SDS011;27351;45.992;12.666;2023-08-07T12:16:19;0.80;;;0.20;;
41661;SDS011;27351;45.992;12.666;2023-08-07T12:18:45;1.10;;;0.20;;
41661;SDS011;27351;45.992;12.666;2023-08-07T12:21:12;0.40;;;0.22;;
41661;SDS011;27351;45.992;12.666;2023-08-07T12:23:38;0.85;;;0.40;;
41661;SDS011;27351;45.992;12.666;2023-08-07T12:26:04;0.40;;;0.20;;
41661;SDS011;27351;45.992;12.666;2023-08-07T12:28:34;0.45;;;0.20;;
41661;SDS011;27351;45.992;12.666;2023-08-07T12:30:59;0.90;;;0.20;;
41661;SDS011;27351;45.992;12.666;2023-08-07T12:33:25;0.85;;;0.40;;
41661;SDS011;27351;45.992;12.666;2023-08-07T12:35:51;0.20;;;0.20;;
41661;SDS011;27351;45.992;12.666;2023-08-07T12:38:18;0.30;;;0.20;;
41661;SDS011;27351;45.992;12.666;2023-08-07T12:40:44;0.90;;;0.50;;
41661;SDS011;27351;45.992;12.666;2023-08-07T12:43:10;0.43;;;0.20;;
41661;SDS011;27351;45.992;12.666;2023-08-07T12:45:35;0.22;;;0.20;;
41661;SDS011;27351;45.992;12.666;2023-08-07T12:48:01;0.37;;;0.20;;
41661;SDS011;27351;45.992;12.666;2023-08-07T12:50:27;0.60;;;0.20;;
41661;SDS011;27351;45.992;12.666;2023-08-07T12:52:53;0.57;;;0.20;;
41661;SDS011;27351;45.992;12.666;2023-08-07T12:55:19;0.60;;;0.20;;
41661;SDS011;27351;45.992;12.666;2023-08-07T12:57:44;0.37;;;0.23;;
41661;SDS011;27351;45.992;12.666;2023-08-07T13:00:10;0.80;;;0.20;;
41661;SDS011;27351;45.992;12.666;2023-08-07T13:02:43;0.10;;;0.10;;
41661;SDS011;27351;45.992;12.666;2023-08-07T13:05:09;0.40;;;0.20;;
41661;SDS011;27351;45.992;12.666;2023-08-07T13:07:40;0.45;;;0.20;;
41661;SDS011;27351;45.992;12.666;2023-08-07T13:10:07;0.17;;;0.10;;
41661;SDS011;27351;45.992;12.666;2023-08-07T13:12:36;0.55;;;0.20;;
41661;SDS011;27351;45.992;12.666;2023-08-07T13:15:05;0.20;;;0.10;;
41661;SDS011;27351;45.992;12.666;2023-08-07T13:17:32;0.63;;;0.10;;
41661;SDS011;27351;45.992;12.666;2023-08-07T13:19:58;1.00;;;0.20;;
41661;SDS011;27351;45.992;12.666;2023-08-07T13:22:24;0.20;;;0.10;;
41661;SDS011;27351;45.992;12.666;2023-08-07T13:24:50;0.47;;;0.20;;
41661;SDS011;27351;45.992;12.666;2023-08-07T13:27:16;0.25;;;0.10;;
41661;SDS011;27351;45.992;12.666;2023-08-07T13:29:41;0.50;;;0.20;;
41661;SDS011;27351;45.992;12.666;2023-08-07T13:32:07;0.63;;;0.13;;
41661;SDS011;27351;45.992;12.666;2023-08-07T13:34:35;0.13;;;0.10;;
41661;SDS011;27351;45.992;12.666;2023-08-07T13:37:01;0.20;;;0.10;;
41661;SDS011;27351;45.992;12.666;2023-08-07T13:39:27;0.47;;;0.23;;
41661;SDS011;27351;45.992;12.666;2023-08-07T13:41:53;0.32;;;0.13;;
41661;SDS011;27351;45.992;12.666;2023-08-07T13:44:19;0.10;;;0.10;;
41661;SDS011;27351;45.992;12.666;2023-08-07T13:46:45;0.90;;;0.28;;
41661;SDS011;27351;45.992;12.666;2023-08-07T13:49:13;0.25;;;0.17;;
41661;SDS011;27351;45.992;12.666;2023-08-07T13:51:38;0.60;;;0.23;;
41661;SDS011;27351;45.992;12.666;2023-08-07T13:54:04;0.47;;;0.20;;
41661;SDS011;27351;45.992;12.666;2023-08-07T13:56:30;1.70;;;0.20;;
41661;SDS011;27351;45.992;12.666;2023-08-07T13:58:55;0.70;;;0.33;;
41661;SDS011;27351;45.992;12.666;2023-08-07T14:01:21;0.70;;;0.20;;
41661;SDS011;27351;45.992;12.666;2023-08-07T14:03:47;0.52;;;0.10;;
41661;SDS011;27351;45.992;12.666;2023-08-07T14:06:12;0.80;;;0.10;;
41661;SDS011;27351;45.992;12.666;2023-08-07T14:08:38;0.30;;;0.10;;
41661;SDS011;27351;45.992;12.666;2023-08-07T14:11:04;0.20;;;0.10;;
41661;SDS011;27351;45.992;12.666;2023-08-07T14:13:30;0.30;;;0.03;;
41661;SDS011;27351;45.992;12.666;2023-08-07T14:15:55;0.50;;;0.20;;
41661;SDS011;27351;45.992;12.666;2023-08-07T14:18:21;1.80;;;0.20;;
41661;SDS011;27351;45.992;12.666;2023-08-07T14:20:47;0.30;;;0.20;;
41661;SDS011;27351;45.992;12.666;2023-08-07T14:23:12;0.88;;;0.15;;
41661;SDS011;27351;45.992;12.666;2023-08-07T14:25:38;0.30;;;0.20;;
41661;SDS011;27351;45.992;12.666;2023-08-07T14:28:04;0.83;;;0.10;;
41661;SDS011;27351;45.992;12.666;2023-08-07T14:30:29;0.45;;;0.20;;
41661;SDS011;27351;45.992;12.666;2023-08-07T14:32:55;0.20;;;0.13;;
41661;SDS011;27351;45.992;12.666;2023-08-07T14:35:20;0.30;;;0.10;;
41661;SDS011;27351;45.992;12.666;2023-08-07T14:37:46;2.60;;;0.20;;